St. Catharines Third Ave

*Note: All times are displayed in the local standard time of the station location.
**Rain - Equipment is designed to accurately record liquid precipitation; under conditions when precipitation is not in liquid form, the data displayed may not properly reflect rainfall values.

Date Max Temp
(°C)
Min Temp
(°C)
Avg Temp
(°C)
Rain (mm) Avg RH (%)
Sat, Feb 17, 2018 -1.0 -6.9 -3.2 0.0 71.3
Fri, Feb 16, 2018 4.2 -6.3 -0.1 0.0 76.8
Thu, Feb 15, 2018 8.9 2.6 5.8 0.2 96.1
Wed, Feb 14, 2018 5.5 -6.4 2.4 8.6 74.8
Tue, Feb 13, 2018 0.4 -16.1 -7.9 0.0 75.0
Mon, Feb 12, 2018 -2.0 -12.6 -4.8 0.6 69.1
Sun, Feb 11, 2018 0.7 -3.9 -1.7 4.4 91.8
DateTime Avg Temp (°C) Rain (mm) RH (%)
Sun, Feb 18, 2018 04:00 -2.4 0.0 86.5
Sun, Feb 18, 2018 03:00 -1.9 0.0 84.0
Sun, Feb 18, 2018 02:00 -1.7 0.0 85.5
Sun, Feb 18, 2018 01:00 -1.9 0.0 87.3
Sun, Feb 18, 2018 00:00 -1.7 0.0 84.5
Sat, Feb 17, 2018 23:00 -1.6 0.0 78.0
Sat, Feb 17, 2018 22:00 -1.8 0.0 73.5
Sat, Feb 17, 2018 21:00 -1.9 0.0 70.8
Sat, Feb 17, 2018 20:00 -2.0 0.0 71.8
Sat, Feb 17, 2018 19:00 -1.7 0.0 63.5
Sat, Feb 17, 2018 18:00 -1.5 0.0 58.8
Sat, Feb 17, 2018 17:00 -1.3 0.0 56.3
Sat, Feb 17, 2018 16:00 -1.2 0.0 58.8
Sat, Feb 17, 2018 15:00 -1.1 0.0 57.8
Sat, Feb 17, 2018 14:00 -1.1 0.0 60.3
Sat, Feb 17, 2018 13:00 -1.2 0.0 59.0
Sat, Feb 17, 2018 12:00 -1.2 0.0 60.3
Sat, Feb 17, 2018 11:00 -1.8 0.0 62.3
Sat, Feb 17, 2018 10:00 -2.8 0.0 67.5
Sat, Feb 17, 2018 09:00 -4.4 0.0 73.3
Sat, Feb 17, 2018 08:00 -5.9 0.0 79.8
Sat, Feb 17, 2018 07:00 -6.3 0.0 82.3
Sat, Feb 17, 2018 06:00 -5.8 0.0 80.8
Sat, Feb 17, 2018 05:00 -5.5 0.0 80.3
Sat, Feb 17, 2018 04:00 -5.7 0.0 79.3
Sat, Feb 17, 2018 03:00 -6.7 0.0 85.0
Sat, Feb 17, 2018 02:00 -6.7 0.0 85.0
Sat, Feb 17, 2018 01:00 -6.7 0.0 83.8
Sat, Feb 17, 2018 00:00 -6.2 0.0 79.3
Fri, Feb 16, 2018 23:00 -6.1 0.0 78.8
Fri, Feb 16, 2018 22:00 -5.2 0.0 72.8
Fri, Feb 16, 2018 21:00 -4.0 0.0 63.0
Fri, Feb 16, 2018 20:00 -3.5 0.0 55.3
Fri, Feb 16, 2018 19:00 -3.2 0.0 55.3
Fri, Feb 16, 2018 18:00 -2.7 0.0 55.5
Fri, Feb 16, 2018 17:00 -1.0 0.0 56.5
Fri, Feb 16, 2018 16:00 -0.1 0.0 59.3
Fri, Feb 16, 2018 15:00 1.0 0.0 56.8
Fri, Feb 16, 2018 14:00 1.3 0.0 59.8
Fri, Feb 16, 2018 13:00 1.7 0.0 65.0
Fri, Feb 16, 2018 12:00 1.7 0.0 73.8
Fri, Feb 16, 2018 11:00 1.3 0.0 85.5
Fri, Feb 16, 2018 10:00 1.3 0.0 86.0
Fri, Feb 16, 2018 09:00 1.1 0.0 85.3
Fri, Feb 16, 2018 08:00 1.2 0.0 88.0
Fri, Feb 16, 2018 07:00 1.9 0.0 90.8
Fri, Feb 16, 2018 06:00 2.4 0.0 89.8
Fri, Feb 16, 2018 05:00 2.5 0.0 89.3


asterix Register now to access more data! asterix